METAR Reports LIMOGES - BRIVE - BERGERAC - ANGOULEME - CLERMOND-FERRAND - AURILLAC

 

LFBL - Aeroport de Limoges-Bellegarde
Distance from station: NE 45km
Mise à jour: 18/05/2022 12:30
Clair
Clair
 Wind from E
Vent: E 11 km/h
Température: 26°C
Point de rosée: 15°C
Humidité: 51%
Baromètre: 1020 hPa
Résumé: Clair
Visibility: greater than 10 km
2022/05/18 10:30 LFBL 181030Z AUTO 10006KT 060V170 CAVOK 26/15 Q1020 NOSIG
LFSL - Aeroport de Brive-Vallee de la Dordogne
Distance from station: S 40km
Mise à jour: 18/05/2022 12:30
Clair
Clair
 Wind from ENE
Vent: ENE 7 km/h
Température: 27°C
Heat Index: 28°C
Point de rosée: 16°C
Humidité: 51%
Baromètre: 1019 hPa
Résumé: Clair
Visibility: greater than 10 km
2022/05/18 10:30 LFSL 181030Z AUTO 07004KT 020V120 CAVOK 27/16 Q1019 NOSIG
 
LFBE - Aeroport de Bergerac-Dordogne-Perigord
Distance from station: SO 150km
Mise à jour: 18/05/2022 12:30
Clair
Clair
 Wind from varies
Vent: varies 6 km/h
Température: 28°C
Heat Index: 29°C
Point de rosée: 19°C
Humidité: 58%
Baromètre: 1018 hPa
Résumé: Clair
Visibility: greater than 10 km
2022/05/18 10:30 LFBE 181030Z AUTO VRB03KT CAVOK 28/19 Q1018 NOSIG
LFBU - Aeroport international Angouleme-Cognac
Distance from station: SSO 120km
Mise à jour: 18/05/2022 12:30
Clair
Clair
 Wind from E
Vent: E 17 km/h
Température: 27°C
Heat Index: 27°C
Point de rosée: 14°C
Humidité: 45%
Baromètre: 1019 hPa
Résumé: Clair
Visibility: greater than 10 km
2022/05/18 10:30 LFBU 181030Z AUTO 08009KT 050V120 CAVOK 27/14 Q1019 NOSIG
 
LFLC - Aeroport de Clermont-Ferrand Auvergne
Distance from station: E 200km
Mise à jour: 18/05/2022 12:30
Clair
Clair
 Wind from SE
Vent: SE 6 km/h
Température: 26°C
Point de rosée: 16°C
Humidité: 54%
Baromètre: 1021 hPa
Résumé: Clair
Visibility: greater than 10 km
2022/05/18 10:30 LFLC 181030Z AUTO 13003KT 070V200 CAVOK 26/16 Q1021 NOSIG
LFLW - Aeroport Aurillac
Distance from station: SE 120km
Mise à jour: 18/05/2022 12:00
Clair
Clair
 Wind from E
Vent: E 13 km/h
Température: 26°C
Point de rosée: 14°C
Humidité: 48%
Baromètre: 1021 hPa
Résumé: Clair
Visibility: greater than 10 km
2022/05/18 10:00 LFLW 181000Z AUTO 09007KT 060V120 CAVOK 26/14 Q1021